Time;durP1;ratioP1;P1;durP2;ratioP2;P2;SDS_P1;SDS_P2;PMS_P1;PMS_P2;Temp;Humidity;BMP_temperature;BMP_pressure;BME280_temperature;BME280_humidity;BME280_pressure;Samples;Min_cycle;Max_cycle;Signal;HPM_P1;HPM_P2
2022/02/24 00:00:25;;;;;;;11.52;2.97;;;;;;;9.25;64.05;99841.34;5090911;28;20052;-62
2022/02/24 00:02:52;;;;;;;10.30;2.70;;;;;;;9.26;64.48;99832.53;5091289;28;20048;-60
2022/02/24 00:05:19;;;;;;;10.88;3.15;;;;;;;9.29;64.49;99827.13;5091077;28;20090;-62
2022/02/24 00:07:45;;;;;;;9.88;3.50;;;;;;;9.31;64.78;99813.91;5090944;28;20105;-62
2022/02/24 00:10:13;;;;;;;11.82;2.90;;;;;;;9.35;64.58;99818.09;5090401;28;20097;-59
2022/02/24 00:12:41;;;;;;;11.77;3.10;;;;;;;9.36;64.46;99818.03;5091007;28;20044;-59
2022/02/24 00:15:09;;;;;;;7.15;3.10;;;;;;;9.38;64.32;99821.41;5089822;28;20047;-59
2022/02/24 00:17:36;;;;;;;10.82;3.13;;;;;;;9.39;63.95;99812.59;5090830;28;20097;-61
2022/02/24 00:20:06;;;;;;;9.05;2.67;;;;;;;9.41;63.43;99820.38;5089354;28;20051;-59
2022/02/24 00:22:33;;;;;;;8.15;2.75;;;;;;;9.45;64.51;99805.31;5090951;28;20044;-61
2022/02/24 00:25:01;;;;;;;8.75;3.50;;;;;;;9.47;64.33;99812.22;5089238;28;20450;-61
2022/02/24 00:27:28;;;;;;;10.98;3.08;;;;;;;9.49;64.24;99809.47;5089215;28;20134;-60
2022/02/24 00:29:55;;;;;;;13.07;3.35;;;;;;;9.51;63.91;99807.63;5090427;28;20105;-61
2022/02/24 00:32:21;;;;;;;10.57;3.67;;;;;;;9.50;64.03;99795.44;5089235;28;20048;-61
2022/02/24 00:34:48;;;;;;;12.52;3.38;;;;;;;9.51;64.14;99800.63;5089643;28;20127;-61
2022/02/24 00:37:16;;;;;;;10.43;2.83;;;;;;;9.52;64.26;99802.31;5090344;28;20052;-60
2022/02/24 00:39:43;;;;;;;13.93;3.30;;;;;;;9.55;64.55;99795.19;5090038;28;20048;-61
2022/02/24 00:42:10;;;;;;;8.45;2.75;;;;;;;9.54;64.33;99794.34;5090110;28;20048;-60
2022/02/24 00:44:37;;;;;;;8.02;3.35;;;;;;;9.55;64.28;99796.03;5090571;28;20112;-61
2022/02/24 00:47:04;;;;;;;12.55;3.28;;;;;;;9.54;64.28;99781.22;5090354;28;20066;-61
2022/02/24 00:49:32;;;;;;;10.85;3.20;;;;;;;9.51;64.00;99784.84;5089827;28;20542;-60
2022/02/24 00:51:58;;;;;;;15.55;3.25;;;;;;;9.51;63.67;99782.22;5088874;28;20109;-60
2022/02/24 00:54:25;;;;;;;13.68;4.03;;;;;;;9.50;63.78;99777.88;5089965;28;20451;-61
2022/02/24 00:56:52;;;;;;;13.48;3.55;;;;;;;9.51;64.28;99779.59;5090289;28;20044;-61
2022/02/24 00:59:19;;;;;;;10.68;3.10;;;;;;;9.52;64.30;99776.03;5089704;28;20449;-61
2022/02/24 01:01:45;;;;;;;13.80;3.63;;;;;;;9.50;63.92;99777.88;5089918;28;20113;-60
2022/02/24 01:04:12;;;;;;;13.77;3.53;;;;;;;9.50;63.94;99766.53;5090381;28;20467;-60
2022/02/24 01:06:39;;;;;;;12.48;3.38;;;;;;;9.48;63.53;99758.72;5089784;28;20043;-62
2022/02/24 01:09:05;;;;;;;12.48;3.17;;;;;;;9.47;63.19;99762.28;5089508;28;20052;-68
2022/02/24 01:11:32;;;;;;;11.07;3.38;;;;;;;9.47;63.55;99759.66;5088795;28;20044;-60
2022/02/24 01:13:58;;;;;;;7.60;3.35;;;;;;;9.47;63.23;99750.91;5089650;28;20048;-61
2022/02/24 01:16:25;;;;;;;13.80;3.28;;;;;;;9.48;63.77;99748.22;5090068;28;20431;-60
2022/02/24 01:18:52;;;;;;;9.90;3.25;;;;;;;9.46;63.26;99744.81;5089811;28;20048;-62
2022/02/24 01:21:20;;;;;;;8.88;3.38;;;;;;;9.46;63.08;99738.72;5089398;28;20048;-60
2022/02/24 01:23:46;;;;;;;10.65;3.53;;;;;;;9.46;63.29;99734.28;5089630;28;20117;-63
2022/02/24 01:26:13;;;;;;;10.80;3.58;;;;;;;9.49;63.54;99738.53;5090181;28;20048;-60
2022/02/24 01:28:40;;;;;;;11.23;3.33;;;;;;;9.49;63.34;99731.50;5089772;28;20059;-60
2022/02/24 01:31:06;;;;;;;10.48;3.65;;;;;;;9.49;63.07;99722.78;5089485;28;20037;-59
2022/02/24 01:33:33;;;;;;;12.38;2.92;;;;;;;9.47;62.70;99725.50;5089859;28;20044;-60
2022/02/24 01:36:00;;;;;;;10.48;3.17;;;;;;;9.47;62.62;99722.88;5089872;28;20056;-59
2022/02/24 01:38:26;;;;;;;11.38;3.15;;;;;;;9.46;62.69;99709.81;5090012;28;20109;-60
2022/02/24 01:40:53;;;;;;;9.55;2.78;;;;;;;9.48;62.84;99710.56;5089565;28;20109;-62
2022/02/24 01:43:19;;;;;;;11.60;3.20;;;;;;;9.49;63.22;99702.59;5089952;28;20645;-60
2022/02/24 01:45:46;;;;;;;10.57;3.28;;;;;;;9.44;60.46;99699.38;5089466;28;20052;-61
2022/02/24 01:48:12;;;;;;;9.48;3.20;;;;;;;9.46;61.51;99684.38;5089624;28;20056;-62
2022/02/24 01:50:39;;;;;;;7.60;2.58;;;;;;;9.50;61.96;99688.53;5089187;28;20047;-62
2022/02/24 01:53:06;;;;;;;7.13;2.70;;;;;;;9.52;61.67;99683.19;5089621;28;20468;-61
2022/02/24 01:55:33;;;;;;;10.88;2.95;;;;;;;9.54;61.21;99681.34;5089496;28;20482;-60
2022/02/24 01:57:59;;;;;;;11.70;2.83;;;;;;;9.55;61.57;99684.81;5089640;28;20048;-62
2022/02/24 02:00:26;;;;;;;8.70;2.88;;;;;;;9.56;62.03;99678.63;5089090;28;20553;-60
2022/02/24 02:02:53;;;;;;;10.80;2.35;;;;;;;9.57;61.73;99675.91;5088675;28;20044;-60
2022/02/24 02:05:20;;;;;;;8.32;2.45;;;;;;;9.59;62.27;99670.56;5088059;28;20044;-60
2022/02/24 02:07:47;;;;;;;8.85;3.03;;;;;;;9.59;62.38;99670.56;5089788;28;20048;-60
2022/02/24 02:10:13;;;;;;;15.65;3.50;;;;;;;9.59;62.32;99670.56;5089102;28;20393;-63
2022/02/24 02:12:51;;;;;;;10.90;3.67;;;;;;;9.52;58.64;99670.06;5089997;28;20052;-61
2022/02/24 02:15:18;;;;;;;13.32;2.95;;;;;;;9.57;62.28;99672.44;5091804;28;20097;-62
2022/02/24 02:17:46;;;;;;;12.60;3.30;;;;;;;9.56;62.09;99665.47;5092565;28;20044;-60
2022/02/24 02:20:13;;;;;;;10.48;2.90;;;;;;;9.55;62.42;99664.66;5091717;28;20055;-60
2022/02/24 02:22:40;;;;;;;7.68;2.92;;;;;;;9.55;62.52;99659.41;5092981;28;20056;-60
2022/02/24 02:25:07;;;;;;;10.10;2.75;;;;;;;9.53;62.50;99655.97;5092929;28;20442;-60
2022/02/24 02:27:38;;;;;;;7.85;2.75;;;;;;;9.52;62.35;99649.03;5091702;28;20059;-61
2022/02/24 02:30:07;;;;;;;9.77;2.78;;;;;;;9.52;62.59;99649.03;5092486;28;20076;-60
2022/02/24 02:32:33;;;;;;;10.30;2.90;;;;;;;9.51;62.61;99647.34;5092997;28;20052;-61
2022/02/24 02:35:00;;;;;;;9.18;2.70;;;;;;;9.51;62.81;99639.47;5092532;28;20048;-61
2022/02/24 02:37:27;;;;;;;12.13;3.03;;;;;;;9.52;63.03;99638.53;5092408;28;20051;-62
2022/02/24 02:39:53;;;;;;;12.02;3.00;;;;;;;9.52;63.41;99635.91;5092695;28;20052;-60
2022/02/24 02:42:20;;;;;;;7.35;2.58;;;;;;;9.51;63.20;99632.44;5092677;28;20055;-63
2022/02/24 02:44:47;;;;;;;10.75;3.15;;;;;;;9.51;63.13;99618.44;5092335;28;20458;-62
2022/02/24 02:47:14;;;;;;;10.57;2.60;;;;;;;9.51;63.33;99621.94;5092391;28;20488;-60
2022/02/24 02:49:40;;;;;;;7.43;2.95;;;;;;;9.52;63.60;99620.13;5091960;28;20466;-62
2022/02/24 02:52:07;;;;;;;14.35;3.20;;;;;;;9.51;63.28;99623.69;5092245;28;20043;-60
2022/02/24 02:54:34;;;;;;;10.43;2.70;;;;;;;9.50;63.30;99620.22;5092386;28;20051;-60
2022/02/24 02:57:01;;;;;;;13.32;3.00;;;;;;;9.51;63.28;99626.34;5092289;28;20455;-63
2022/02/24 02:59:28;;;;;;;9.75;2.60;;;;;;;9.50;63.23;99620.22;5092031;28;20438;-60
2022/02/24 03:01:56;;;;;;;10.50;2.83;;;;;;;9.48;63.41;99605.47;5092420;28;20060;-61
2022/02/24 03:04:23;;;;;;;12.70;3.33;;;;;;;9.48;63.73;99603.69;5091263;28;20135;-63
2022/02/24 03:06:50;;;;;;;9.07;2.80;;;;;;;9.48;63.41;99608.09;5090707;28;20066;-60
2022/02/24 03:09:17;;;;;;;10.25;2.80;;;;;;;9.47;63.36;99599.38;5091900;28;20044;-60
2022/02/24 03:11:44;;;;;;;10.63;2.97;;;;;;;9.47;63.51;99604.63;5090991;28;20412;-60
2022/02/24 03:14:10;;;;;;;16.88;3.35;;;;;;;9.46;63.35;99599.47;5090931;28;20565;-60
2022/02/24 03:16:37;;;;;;;11.90;3.28;;;;;;;9.46;63.81;99592.41;5091997;28;20105;-62
2022/02/24 03:19:04;;;;;;;9.93;3.03;;;;;;;9.47;63.66;99583.63;5091954;28;20086;-63
2022/02/24 03:21:31;;;;;;;10.55;3.28;;;;;;;9.43;63.48;99584.72;5091704;28;20058;-62
2022/02/24 03:23:57;;;;;;;11.05;3.58;;;;;;;9.43;63.37;99581.22;5091432;28;20044;-61
2022/02/24 03:26:24;;;;;;;12.27;3.78;;;;;;;9.43;63.26;99586.50;5091592;28;20121;-60
2022/02/24 03:28:52;;;;;;;9.55;3.35;;;;;;;9.41;63.37;99588.38;5091455;28;20564;-60
2022/02/24 03:31:19;;;;;;;12.30;3.80;;;;;;;9.41;63.25;99577.84;5091287;28;20481;-61
2022/02/24 03:33:45;;;;;;;12.45;3.80;;;;;;;9.39;62.85;99570.88;5091869;28;20052;-62
2022/02/24 03:36:12;;;;;;;10.82;3.28;;;;;;;9.39;63.13;99576.13;5091776;28;20063;-63
2022/02/24 03:38:39;;;;;;;11.02;3.50;;;;;;;9.39;62.92;99576.13;5091474;28;20052;-60
2022/02/24 03:41:05;;;;;;;12.07;3.85;;;;;;;9.37;62.11;99585.91;5091037;28;20093;-62
2022/02/24 03:43:32;;;;;;;9.93;3.38;;;;;;;9.37;62.60;99564.03;5091583;28;20102;-61
2022/02/24 03:45:59;;;;;;;10.43;3.67;;;;;;;9.38;62.52;99566.56;5091058;28;20048;-62
2022/02/24 03:48:25;;;;;;;11.23;3.83;;;;;;;9.39;61.64;99570.06;5091753;28;20637;-60
2022/02/24 03:50:52;;;;;;;12.75;4.13;;;;;;;9.38;62.00;99561.31;5091302;28;20452;-60
2022/02/24 03:53:18;;;;;;;14.55;4.13;;;;;;;9.40;62.49;99555.97;5091303;28;20462;-61
2022/02/24 03:55:49;;;;;;;14.23;3.92;;;;;;;9.40;62.48;99553.34;5091434;28;20151;-63
2022/02/24 03:58:15;;;;;;;14.38;4.57;;;;;;;9.39;62.04;99541.16;5091216;28;20051;-60
2022/02/24 04:00:42;;;;;;;12.50;3.90;;;;;;;9.39;62.38;99544.63;5090887;28;20481;-63
2022/02/24 04:03:08;;;;;;;11.13;3.47;;;;;;;9.38;62.30;99536.81;5090930;28;20087;-63
2022/02/24 04:05:35;;;;;;;17.52;4.70;;;;;;;9.34;61.53;99530.91;5090854;28;20488;-60
2022/02/24 04:08:03;;;;;;;9.05;3.72;;;;;;;9.33;61.42;99513.44;5091145;28;20058;-61
2022/02/24 04:10:30;;;;;;;11.30;4.53;;;;;;;9.32;61.46;99513.53;5090499;28;20048;-62
2022/02/24 04:12:57;;;;;;;13.02;4.18;;;;;;;9.33;61.65;99510.81;5090774;28;20079;-60
2022/02/24 04:15:24;;;;;;;16.27;5.10;;;;;;;9.32;61.39;99506.50;5090601;28;20061;-61
2022/02/24 04:17:50;;;;;;;14.25;4.18;;;;;;;9.33;61.87;99502.94;5090611;28;20085;-65
2022/02/24 04:20:17;;;;;;;11.30;4.28;;;;;;;9.33;61.55;99502.09;5090421;28;20415;-60
2022/02/24 04:22:44;;;;;;;11.18;3.85;;;;;;;9.32;61.72;99495.16;5090427;28;20052;-61
2022/02/24 04:25:10;;;;;;;16.38;4.47;;;;;;;9.30;61.65;99497.84;5089484;28;20056;-64
2022/02/24 04:27:45;;;;;;;18.00;4.63;;;;;;;9.28;59.91;99494.47;5090617;28;20052;-60
2022/02/24 04:30:12;;;;;;;11.80;3.97;;;;;;;9.28;61.95;99488.38;5089227;28;20052;-63
2022/02/24 04:32:40;;;;;;;17.15;4.30;;;;;;;9.27;61.96;99492.75;5090419;28;20440;-63
2022/02/24 04:35:07;;;;;;;11.50;3.67;;;;;;;9.27;61.86;99491.94;5089813;28;20056;-61
2022/02/24 04:37:34;;;;;;;11.80;4.53;;;;;;;9.25;62.07;99471.88;5088989;28;20044;-61
2022/02/24 04:40:05;;;;;;;8.43;3.60;;;;;;;9.25;62.68;99482.38;5090363;28;20048;-63
2022/02/24 04:42:32;;;;;;;12.32;3.80;;;;;;;9.24;62.80;99472.78;5089191;28;20571;-62
2022/02/24 04:45:04;;;;;;;12.80;3.53;;;;;;;9.23;62.51;99473.72;5090250;28;20044;-61
2022/02/24 04:47:31;;;;;;;16.45;3.90;;;;;;;9.23;63.24;99473.72;5089039;28;20052;-60
2022/02/24 04:49:57;;;;;;;10.68;3.60;;;;;;;9.22;62.98;99473.78;5088655;28;20048;-61
2022/02/24 04:52:24;;;;;;;11.60;3.42;;;;;;;9.20;62.85;99476.50;5089671;28;20065;-61
2022/02/24 04:54:50;;;;;;;13.70;3.75;;;;;;;9.21;63.26;99472.97;5090422;28;20389;-60
2022/02/24 04:57:18;;;;;;;10.30;3.53;;;;;;;9.20;63.29;99466.00;5090113;28;20044;-61
2022/02/24 04:59:44;;;;;;;11.60;3.55;;;;;;;9.21;63.31;99465.09;5090043;28;20044;-61
2022/02/24 05:02:11;;;;;;;11.25;3.78;;;;;;;9.20;62.77;99465.16;5089924;28;20040;-60
2022/02/24 05:04:38;;;;;;;12.65;3.13;;;;;;;9.20;63.00;99463.38;5089886;28;20575;-61
2022/02/24 05:07:04;;;;;;;18.20;4.28;;;;;;;9.18;62.70;99467.03;5089859;28;20071;-61
2022/02/24 05:09:31;;;;;;;14.23;3.30;;;;;;;9.20;62.77;99459.91;5090000;28;20044;-60
2022/02/24 05:11:57;;;;;;;6.88;2.78;;;;;;;9.21;62.66;99462.47;5089767;28;20055;-65
2022/02/24 05:14:27;;;;;;;16.15;2.92;;;;;;;9.23;62.81;99457.09;5089608;28;20117;-60
2022/02/24 05:16:54;;;;;;;9.63;3.20;;;;;;;9.25;62.97;99456.09;5088640;28;20401;-61
2022/02/24 05:19:21;;;;;;;10.40;2.90;;;;;;;9.25;62.62;99456.09;5090015;28;20064;-64
2022/02/24 05:21:48;;;;;;;11.32;2.92;;;;;;;9.27;62.72;99442.03;5088326;28;20059;-62
2022/02/24 05:24:15;;;;;;;10.63;3.50;;;;;;;9.29;62.89;99427.03;5089963;28;20072;-61
2022/02/24 05:26:42;;;;;;;9.75;3.00;;;;;;;9.29;62.53;99441.00;5089931;28;20063;-60
2022/02/24 05:29:08;;;;;;;11.80;3.53;;;;;;;9.30;62.48;99439.25;5089492;28;20056;-62
2022/02/24 05:31:35;;;;;;;14.38;3.33;;;;;;;9.30;62.32;99444.50;5089929;28;20040;-60
2022/02/24 05:34:02;;;;;;;11.13;2.88;;;;;;;9.29;62.55;99427.88;5090036;28;20087;-63
2022/02/24 05:36:29;;;;;;;12.50;3.20;;;;;;;9.29;62.79;99427.88;5088701;28;20460;-62
2022/02/24 05:38:55;;;;;;;11.05;3.35;;;;;;;9.29;63.07;99435.75;5088614;28;20052;-60
2022/02/24 05:41:22;;;;;;;13.23;3.30;;;;;;;9.27;62.88;99415.75;5089632;28;20052;-64
2022/02/24 05:43:51;;;;;;;18.77;3.78;;;;;;;9.26;63.21;99430.66;5089711;28;20056;-61
2022/02/24 05:46:18;;;;;;;13.23;3.55;;;;;;;9.24;63.14;99417.63;5089373;28;20047;-63
2022/02/24 05:48:45;;;;;;;12.20;3.63;;;;;;;9.23;63.33;99415.94;5092189;28;20113;-61
2022/02/24 05:51:12;;;;;;;9.05;3.25;;;;;;;9.22;63.32;99411.63;5093414;28;20051;-60
2022/02/24 05:53:39;;;;;;;13.13;3.33;;;;;;;9.20;63.41;99408.22;5093579;28;20508;-63
2022/02/24 05:56:05;;;;;;;9.88;3.30;;;;;;;9.19;63.39;99396.03;5093418;28;20051;-61
2022/02/24 05:58:33;;;;;;;12.55;3.10;;;;;;;9.18;63.82;99404.84;5093439;28;20484;-62
2022/02/24 06:00:59;;;;;;;11.35;3.75;;;;;;;9.17;63.66;99399.69;5091690;28;20044;-61
2022/02/24 06:03:26;;;;;;;14.35;3.30;;;;;;;9.16;63.97;99396.19;5093336;28;20044;-61
2022/02/24 06:05:56;;;;;;;12.00;3.78;;;;;;;9.15;63.82;99394.50;5093109;28;20432;-61
2022/02/24 06:08:23;;;;;;;11.93;3.60;;;;;;;9.15;64.07;99381.38;5093462;28;20076;-62
2022/02/24 06:10:50;;;;;;;16.88;3.22;;;;;;;9.15;64.19;99378.75;5093000;28;20044;-61
2022/02/24 06:13:17;;;;;;;16.85;3.90;;;;;;;9.13;64.13;99375.38;5092939;28;20139;-62
2022/02/24 06:15:44;;;;;;;12.57;3.78;;;;;;;9.12;64.49;99374.53;5093238;28;20048;-60
2022/02/24 06:18:16;;;;;;;10.60;3.33;;;;;;;9.11;64.09;99370.22;5092769;28;20040;-61
2022/02/24 06:20:42;;;;;;;16.20;3.80;;;;;;;9.12;64.05;99373.66;5092823;28;20048;-62
2022/02/24 06:23:09;;;;;;;9.00;3.45;;;;;;;9.12;64.38;99371.03;5092784;28;20055;-62
2022/02/24 06:25:35;;;;;;;12.93;3.75;;;;;;;9.12;64.71;99368.41;5092762;28;20188;-62
2022/02/24 06:28:02;;;;;;;11.88;3.63;;;;;;;9.11;64.68;99369.38;5093139;28;20060;-61
2022/02/24 06:30:29;;;;;;;14.98;3.83;;;;;;;9.10;64.81;99365.06;5092954;28;20052;-61
2022/02/24 06:32:55;;;;;;;11.00;4.07;;;;;;;9.10;64.91;99365.06;5092429;28;20043;-62
2022/02/24 06:35:22;;;;;;;13.90;3.70;;;;;;;9.10;65.09;99359.81;5092760;28;20048;-62
2022/02/24 06:37:49;;;;;;;7.93;3.20;;;;;;;9.09;64.96;99345.81;5091355;28;20074;-60
2022/02/24 06:40:15;;;;;;;15.73;3.83;;;;;;;9.10;64.90;99344.91;5092008;28;20047;-64
2022/02/24 06:42:42;;;;;;;12.40;3.55;;;;;;;9.12;65.19;99348.28;5092681;28;20060;-61
2022/02/24 06:45:09;;;;;;;14.50;3.72;;;;;;;9.14;65.41;99335.06;5092825;28;20534;-61
2022/02/24 06:47:36;;;;;;;10.27;3.38;;;;;;;9.14;65.50;99332.44;5092119;28;20044;-60
2022/02/24 06:50:04;;;;;;;18.55;3.97;;;;;;;9.13;65.09;99333.38;5092186;28;20106;-64
2022/02/24 06:52:31;;;;;;;15.88;4.40;;;;;;;9.13;65.00;99333.38;5091056;28;20051;-61
2022/02/24 06:55:00;;;;;;;12.30;3.80;;;;;;;9.12;65.09;99322.00;5091125;28;20142;-61
2022/02/24 06:57:26;;;;;;;13.55;3.45;;;;;;;9.14;65.39;99324.56;5092418;28;20180;-62
2022/02/24 06:59:53;;;;;;;14.60;3.80;;;;;;;9.14;65.75;99321.94;5091440;28;20506;-62
2022/02/24 07:02:20;;;;;;;11.07;3.22;;;;;;;9.15;65.25;99321.00;5090696;28;20043;-63
2022/02/24 07:04:49;;;;;;;7.90;3.17;;;;;;;9.16;65.72;99317.41;5091950;28;20105;-61
2022/02/24 07:07:17;;;;;;;8.48;3.50;;;;;;;9.18;65.49;99312.09;5092246;28;20048;-61
2022/02/24 07:09:44;;;;;;;16.83;4.20;;;;;;;9.19;65.57;99304.13;5091223;28;20106;-64
2022/02/24 07:12:10;;;;;;;12.95;3.60;;;;;;;9.20;65.62;99305.81;5091160;28;20048;-61
2022/02/24 07:14:37;;;;;;;11.23;3.42;;;;;;;9.22;65.71;99300.47;5091639;28;20113;-61
2022/02/24 07:17:06;;;;;;;13.52;4.55;;;;;;;9.24;65.83;99306.50;5091741;28;20051;-64
2022/02/24 07:19:33;;;;;;;11.77;3.67;;;;;;;9.25;65.96;99295.03;5091702;28;20149;-60
2022/02/24 07:21:59;;;;;;;8.77;3.70;;;;;;;9.28;65.83;99301.88;5091783;28;20809;-60
2022/02/24 07:24:26;;;;;;;10.88;3.60;;;;;;;9.30;66.16;99302.66;5091665;28;20048;-61
2022/02/24 07:26:52;;;;;;;8.85;3.30;;;;;;;9.31;66.15;99299.91;5091173;28;20557;-63
2022/02/24 07:29:19;;;;;;;17.17;3.85;;;;;;;9.33;65.90;99300.69;5090129;28;20458;-61
2022/02/24 07:31:48;;;;;;;16.35;4.68;;;;;;;9.33;65.52;99300.69;5090857;28;20080;-60
2022/02/24 07:34:14;;;;;;;12.88;3.60;;;;;;;9.36;66.11;99294.41;5091337;28;20184;-63
2022/02/24 07:36:43;;;;;;;15.50;3.63;;;;;;;9.34;65.48;99289.25;5091625;28;20639;-62
2022/02/24 07:39:12;;;;;;;11.68;3.53;;;;;;;9.38;65.75;99292.50;5090260;28;20141;-64
2022/02/24 07:41:40;;;;;;;13.52;3.53;;;;;;;9.39;65.48;99286.34;5091418;28;20048;-61
2022/02/24 07:44:07;;;;;;;14.73;3.80;;;;;;;9.39;65.45;99286.34;5091486;28;20059;-65
2022/02/24 07:46:34;;;;;;;15.77;3.80;;;;;;;9.41;65.50;99281.84;5091077;28;20048;-61
2022/02/24 07:49:01;;;;;;;14.77;4.38;;;;;;;9.44;65.60;99286.91;5086522;28;20048;-63
2022/02/24 07:51:28;;;;;;;12.18;3.60;;;;;;;9.46;65.71;99271.88;5070728;28;20109;-62
2022/02/24 07:53:54;;;;;;;11.93;3.22;;;;;;;9.49;65.69;99273.47;5071194;28;20110;-61
2022/02/24 07:56:21;;;;;;;14.57;3.78;;;;;;;9.50;65.35;99273.41;5070904;28;20538;-62
2022/02/24 07:58:48;;;;;;;13.60;3.70;;;;;;;9.52;64.91;99278.56;5071044;28;20052;-61
2022/02/24 08:01:17;;;;;;;10.00;3.38;;;;;;;9.55;65.30;99267.00;5078022;28;20182;-60
2022/02/24 08:03:44;;;;;;;10.52;3.20;;;;;;;9.57;65.37;99259.91;5089708;28;20052;-62
2022/02/24 08:06:10;;;;;;;11.38;3.55;;;;;;;9.58;65.23;99258.97;5090081;28;20040;-61
2022/02/24 08:08:37;;;;;;;12.82;3.78;;;;;;;9.61;65.23;99248.28;5091123;28;20112;-61
2022/02/24 08:11:03;;;;;;;11.77;3.75;;;;;;;9.62;64.97;99258.69;5089865;28;20044;-63
2022/02/24 08:13:30;;;;;;;10.00;3.28;;;;;;;9.64;64.67;99258.56;5089672;28;20059;-60
2022/02/24 08:15:56;;;;;;;14.88;3.83;;;;;;;9.65;64.75;99269.00;5090681;28;20118;-60
2022/02/24 08:18:23;;;;;;;15.50;3.95;;;;;;;9.67;64.53;99261.03;5072398;28;20669;-60
2022/02/24 08:20:50;;;;;;;13.07;3.58;;;;;;;9.70;64.71;99252.09;5090624;28;20050;-61
2022/02/24 08:23:18;;;;;;;14.60;4.05;;;;;;;9.74;64.90;99243.94;5090816;28;20097;-60
2022/02/24 08:25:45;;;;;;;13.73;3.55;;;;;;;9.79;65.32;99251.53;5091117;28;20146;-60
2022/02/24 08:28:12;;;;;;;11.80;3.50;;;;;;;9.81;64.99;99254.91;5089395;28;20047;-61
2022/02/24 08:30:38;;;;;;;14.85;4.35;;;;;;;9.82;64.70;99235.56;5088912;28;20048;-71
2022/02/24 08:33:05;;;;;;;14.35;4.10;;;;;;;9.83;63.89;99225.91;5090728;28;20044;-60
2022/02/24 08:35:32;;;;;;;12.05;3.53;;;;;;;9.87;64.67;99236.13;5090863;28;20055;-63
2022/02/24 08:37:59;;;;;;;13.52;4.20;;;;;;;9.89;64.46;99222.88;5090685;28;20075;-68
2022/02/24 08:40:27;;;;;;;11.68;3.28;;;;;;;9.90;64.16;99224.56;5090224;28;20052;-60
2022/02/24 08:42:54;;;;;;;10.93;3.78;;;;;;;9.91;64.42;99203.44;5088588;28;20052;-63
2022/02/24 08:45:21;;;;;;;11.90;3.25;;;;;;;9.94;64.54;99223.44;5090185;28;20040;-61
2022/02/24 08:47:49;;;;;;;10.80;3.60;;;;;;;9.96;64.72;99207.56;5090396;28;20427;-63
2022/02/24 08:50:16;;;;;;;11.93;3.60;;;;;;;9.97;64.81;99215.38;5088740;28;20051;-61
2022/02/24 08:53:04;;;;;;;9.60;3.10;;;;;;;10.00;64.61;99196.78;5089967;28;20072;-62
2022/02/24 08:55:32;;;;;;;13.48;3.15;;;;;;;10.03;64.52;99201.81;5088740;28;20496;-60
2022/02/24 08:57:58;;;;;;;10.63;3.08;;;;;;;10.08;64.85;99192.78;5088698;28;20454;-64
2022/02/24 09:00:27;;;;;;;10.00;3.13;;;;;;;10.10;64.61;99186.47;5090074;28;20043;-61
2022/02/24 09:02:54;;;;;;;15.45;3.42;;;;;;;10.15;64.40;99191.47;5090046;28;20059;-61
2022/02/24 09:05:21;;;;;;;9.32;3.38;;;;;;;10.19;64.51;99200.84;5089954;28;20093;-61
2022/02/24 09:07:47;;;;;;;10.40;2.60;;;;;;;10.23;64.62;99181.28;5090159;28;20048;-61
2022/02/24 09:10:27;;;;;;;10.55;2.63;;;;;;;10.26;64.06;99174.97;5090080;28;20109;-61
2022/02/24 09:12:54;;;;;;;11.90;3.08;;;;;;;10.29;64.06;99175.63;5089857;28;20048;-63
2022/02/24 09:15:20;;;;;;;9.75;2.83;;;;;;;10.32;63.15;99164.03;5089797;28;20056;-61
2022/02/24 09:17:48;;;;;;;9.68;2.67;;;;;;;10.37;64.17;99161.13;5090096;28;20078;-62
2022/02/24 09:20:14;;;;;;;8.15;3.00;;;;;;;10.41;63.81;99155.56;5089683;28;20048;-62
2022/02/24 09:22:41;;;;;;;10.10;3.22;;;;;;;10.45;63.21;99161.50;5092225;28;20749;-61
2022/02/24 09:25:09;;;;;;;10.48;2.90;;;;;;;10.50;63.77;99148.88;5094091;28;20060;-60
2022/02/24 09:27:36;;;;;;;6.40;2.30;;;;;;;10.55;63.31;99151.22;5094512;28;20552;-60
2022/02/24 09:30:04;;;;;;;7.80;2.60;;;;;;;10.60;63.67;99149.09;5093536;28;20109;-62
2022/02/24 09:32:32;;;;;;;9.00;2.42;;;;;;;10.62;62.33;99143.75;5093924;28;20093;-64
2022/02/24 09:34:59;;;;;;;8.50;2.88;;;;;;;10.62;61.18;99146.38;5093846;28;20048;-60
2022/02/24 09:37:25;;;;;;;10.57;2.60;;;;;;;10.63;61.55;99125.22;5093736;28;20052;-62
2022/02/24 09:39:52;;;;;;;9.43;2.67;;;;;;;10.66;61.22;99121.53;5093894;28;20097;-61
2022/02/24 09:42:19;;;;;;;9.35;2.70;;;;;;;10.66;61.26;99116.28;5093779;28;20052;-60
2022/02/24 09:44:46;;;;;;;14.00;3.05;;;;;;;10.69;61.22;99118.69;5093275;28;20052;-60
2022/02/24 09:47:16;;;;;;;6.43;2.13;;;;;;;10.74;61.78;99116.59;5093602;28;20113;-64
2022/02/24 09:49:45;;;;;;;9.82;3.17;;;;;;;10.77;61.21;99105.84;5092327;28;20052;-61
2022/02/24 09:52:11;;;;;;;11.07;2.90;;;;;;;10.81;60.58;99096.78;5092322;28;20052;-63
2022/02/24 09:54:38;;;;;;;10.57;2.70;;;;;;;10.81;60.56;99094.16;5093845;28;20056;-61
2022/02/24 09:57:04;;;;;;;9.60;2.40;;;;;;;10.86;60.96;99087.72;5093110;28;20059;-61
2022/02/24 09:59:32;;;;;;;7.15;2.22;;;;;;;10.89;60.95;99062.03;5093528;28;20113;-60
2022/02/24 10:02:00;;;;;;;7.68;2.20;;;;;;;10.96;61.65;99065.09;5093662;28;20044;-61
2022/02/24 10:04:27;;;;;;;10.40;2.40;;;;;;;11.03;62.79;99066.31;5093326;28;20443;-61
2022/02/24 10:06:54;;;;;;;6.95;2.30;;;;;;;11.11;62.21;99063.19;5093536;28;20063;-64
2022/02/24 10:09:31;;;;;;;5.53;2.22;;;;;;;11.11;56.62;99051.78;5093381;28;20044;-61
2022/02/24 10:12:10;;;;;;;7.60;2.30;;;;;;;11.08;56.04;99056.34;5092990;28;20052;-62
2022/02/24 10:14:38;;;;;;;7.40;1.90;;;;;;;11.10;59.20;99034.31;5091967;28;20052;-61
2022/02/24 10:17:07;;;;;;;9.80;2.42;;;;;;;11.08;59.49;99029.13;5093372;28;20476;-63
2022/02/24 10:19:43;;;;;;;9.63;2.03;;;;;;;11.04;58.18;99048.75;5091830;28;20102;-61
2022/02/24 10:22:13;;;;;;;6.10;1.90;;;;;;;10.99;57.16;99030.63;5091925;28;20770;-60
2022/02/24 10:24:41;;;;;;;8.85;1.90;;;;;;;10.94;59.10;99030.09;5092903;28;20040;-62
2022/02/24 10:27:19;;;;;;;7.05;2.20;;;;;;;10.88;55.96;99023.47;5092016;28;20558;-63
2022/02/24 10:30:00;;;;;;;5.50;1.63;;;;;;;10.84;55.39;99027.28;5093040;28;20048;-60
2022/02/24 10:32:38;;;;;;;6.30;1.58;;;;;;;10.81;56.68;99006.44;5091827;28;20489;-64
2022/02/24 10:35:18;;;;;;;6.50;1.60;;;;;;;10.77;56.41;99016.34;5091000;28;20048;-61
2022/02/24 10:38:00;;;;;;;5.97;1.77;;;;;;;10.76;55.67;99019.09;5091832;28;20489;-61
2022/02/24 10:40:31;;;;;;;6.43;1.73;;;;;;;10.78;58.67;99007.50;5092124;28;20048;-61
2022/02/24 10:43:11;;;;;;;7.63;1.77;;;;;;;10.74;54.65;98989.38;5091827;28;20101;-61
2022/02/24 10:45:38;;;;;;;14.32;3.05;;;;;;;10.75;58.84;99004.22;5092720;28;20488;-62
2022/02/24 10:48:06;;;;;;;5.78;1.85;;;;;;;10.78;59.21;99001.38;5091503;28;20058;-64
2022/02/24 10:50:57;;;;;;;8.18;2.53;;;;;;;10.74;55.74;98979.72;5091364;28;20052;-61
2022/02/24 10:53:35;;;;;;;5.45;1.48;;;;;;;10.81;58.22;98991.47;5088674;28;20089;-61
2022/02/24 10:56:07;;;;;;;3.85;1.73;;;;;;;10.85;57.69;99001.81;5091035;28;20102;-62
2022/02/24 10:58:40;;;;;;;5.97;2.00;;;;;;;10.85;57.51;98986.00;5091165;28;20094;-60
2022/02/24 11:01:11;;;;;;;;;;;;;;;10.87;55.55;98979.69;5092828;28;20056;-63
2022/02/24 11:03:40;;;;;;;5.60;1.98;;;;;;;10.92;58.77;98987.25;5092274;28;19923;-61
2022/02/24 11:06:08;;;;;;;9.35;2.45;;;;;;;10.87;58.40;98965.69;5091887;28;20200;-61
2022/02/24 11:08:36;;;;;;;8.93;2.30;;;;;;;10.86;58.79;98962.19;5092039;28;20389;-61
2022/02/24 11:11:04;;;;;;;6.40;2.10;;;;;;;10.85;59.54;98968.44;5090426;28;20575;-61
2022/02/24 11:13:30;;;;;;;6.82;1.95;;;;;;;10.82;59.54;98948.44;5092354;28;20044;-61
2022/02/24 11:15:58;;;;;;;5.75;1.75;;;;;;;10.85;59.95;98939.47;5091899;28;20097;-61
2022/02/24 11:18:26;;;;;;;6.65;1.80;;;;;;;10.87;59.81;98926.19;5090681;28;20052;-61
2022/02/24 11:20:55;;;;;;;9.57;2.55;;;;;;;10.93;60.30;98925.75;5091850;28;20490;-62
2022/02/24 11:23:22;;;;;;;11.50;2.50;;;;;;;10.97;60.11;98915.81;5091933;28;20309;-61
2022/02/24 11:26:08;;;;;;;4.65;1.92;;;;;;;11.03;57.04;98916.22;5090187;28;20656;-62
2022/02/24 11:28:57;;;;;;;8.40;2.30;;;;;;;11.16;58.30;98896.88;5091780;28;20055;-63
2022/02/24 11:31:27;;;;;;;9.85;2.20;;;;;;;11.30;60.50;98891.47;5091482;28;20841;-61
2022/02/24 11:33:54;;;;;;;9.35;2.25;;;;;;;11.47;60.87;98881.44;5090526;28;20075;-61
2022/02/24 11:36:22;;;;;;;8.52;2.15;;;;;;;11.63;60.61;98860.06;5091793;28;20146;-61